sensor_id;sensor_type;location;lat;lon;timestamp;temperature;humidity
24408;DHT22;12542;50.924;4.516;2023-11-19T00:02:19;15.40;99.90
24408;DHT22;12542;50.924;4.516;2023-11-19T00:04:45;15.40;99.90
24408;DHT22;12542;50.924;4.516;2023-11-19T00:07:10;15.40;99.90
24408;DHT22;12542;50.924;4.516;2023-11-19T00:09:39;15.40;99.90
24408;DHT22;12542;50.924;4.516;2023-11-19T00:12:06;15.50;99.90
24408;DHT22;12542;50.924;4.516;2023-11-19T00:14:32;15.50;99.90
24408;DHT22;12542;50.924;4.516;2023-11-19T00:16:58;15.40;99.90
24408;DHT22;12542;50.924;4.516;2023-11-19T00:19:24;15.40;99.90
24408;DHT22;12542;50.924;4.516;2023-11-19T00:21:49;15.40;99.90
24408;DHT22;12542;50.924;4.516;2023-11-19T00:24:17;15.30;99.90
24408;DHT22;12542;50.924;4.516;2023-11-19T00:26:46;15.30;99.90
24408;DHT22;12542;50.924;4.516;2023-11-19T00:29:12;15.40;99.90
24408;DHT22;12542;50.924;4.516;2023-11-19T00:31:39;15.20;99.90
24408;DHT22;12542;50.924;4.516;2023-11-19T00:34:05;15.20;99.90
24408;DHT22;12542;50.924;4.516;2023-11-19T00:36:32;15.20;99.90
24408;DHT22;12542;50.924;4.516;2023-11-19T00:38:58;15.20;99.90
24408;DHT22;12542;50.924;4.516;2023-11-19T00:41:24;15.10;99.90
24408;DHT22;12542;50.924;4.516;2023-11-19T00:43:51;15.10;99.90
24408;DHT22;12542;50.924;4.516;2023-11-19T00:46:16;15.20;99.90
24408;DHT22;12542;50.924;4.516;2023-11-19T00:48:42;15.20;99.90
24408;DHT22;12542;50.924;4.516;2023-11-19T00:51:08;15.20;99.90
24408;DHT22;12542;50.924;4.516;2023-11-19T00:53:34;15.40;99.90
24408;DHT22;12542;50.924;4.516;2023-11-19T00:55:59;15.30;99.90
24408;DHT22;12542;50.924;4.516;2023-11-19T00:58:25;15.30;99.90
24408;DHT22;12542;50.924;4.516;2023-11-19T01:00:51;15.30;99.90
24408;DHT22;12542;50.924;4.516;2023-11-19T01:03:17;15.20;99.90
24408;DHT22;12542;50.924;4.516;2023-11-19T01:05:43;15.30;99.90
24408;DHT22;12542;50.924;4.516;2023-11-19T01:08:10;15.30;99.90
24408;DHT22;12542;50.924;4.516;2023-11-19T01:10:37;15.40;99.90
24408;DHT22;12542;50.924;4.516;2023-11-19T01:13:03;15.40;99.90
24408;DHT22;12542;50.924;4.516;2023-11-19T01:15:31;15.40;99.90
24408;DHT22;12542;50.924;4.516;2023-11-19T01:17:57;15.40;99.90
24408;DHT22;12542;50.924;4.516;2023-11-19T01:20:23;15.40;99.90
24408;DHT22;12542;50.924;4.516;2023-11-19T01:22:49;15.40;99.90
24408;DHT22;12542;50.924;4.516;2023-11-19T01:25:15;15.30;99.90
24408;DHT22;12542;50.924;4.516;2023-11-19T01:27:40;15.40;99.90
24408;DHT22;12542;50.924;4.516;2023-11-19T01:30:07;15.30;99.90
24408;DHT22;12542;50.924;4.516;2023-11-19T01:32:35;15.30;99.90
24408;DHT22;12542;50.924;4.516;2023-11-19T01:35:03;15.40;99.90
24408;DHT22;12542;50.924;4.516;2023-11-19T01:37:29;15.30;99.90
24408;DHT22;12542;50.924;4.516;2023-11-19T01:40:00;15.20;99.90
24408;DHT22;12542;50.924;4.516;2023-11-19T01:42:25;15.30;99.90
24408;DHT22;12542;50.924;4.516;2023-11-19T01:45:01;15.30;99.90
24408;DHT22;12542;50.924;4.516;2023-11-19T01:47:30;15.20;99.90
24408;DHT22;12542;50.924;4.516;2023-11-19T01:49:56;15.20;99.90
24408;DHT22;12542;50.924;4.516;2023-11-19T01:52:25;15.10;99.90
24408;DHT22;12542;50.924;4.516;2023-11-19T01:54:52;15.10;99.90
24408;DHT22;12542;50.924;4.516;2023-11-19T01:57:21;15.10;99.90
24408;DHT22;12542;50.924;4.516;2023-11-19T01:59:49;15.10;99.90
24408;DHT22;12542;50.924;4.516;2023-11-19T02:02:16;14.90;99.90
24408;DHT22;12542;50.924;4.516;2023-11-19T02:04:49;14.90;99.90
24408;DHT22;12542;50.924;4.516;2023-11-19T02:07:16;14.90;99.90
24408;DHT22;12542;50.924;4.516;2023-11-19T02:09:43;14.80;99.90
24408;DHT22;12542;50.924;4.516;2023-11-19T02:12:10;14.80;99.90
24408;DHT22;12542;50.924;4.516;2023-11-19T02:14:38;14.80;99.90
24408;DHT22;12542;50.924;4.516;2023-11-19T02:17:04;14.80;99.90
24408;DHT22;12542;50.924;4.516;2023-11-19T02:19:30;14.70;99.90
24408;DHT22;12542;50.924;4.516;2023-11-19T02:21:56;14.70;99.90
24408;DHT22;12542;50.924;4.516;2023-11-19T02:24:31;14.70;99.90
24408;DHT22;12542;50.924;4.516;2023-11-19T02:29:25;14.80;99.90
24408;DHT22;12542;50.924;4.516;2023-11-19T02:31:51;14.90;99.90
24408;DHT22;12542;50.924;4.516;2023-11-19T02:34:17;14.80;99.90
24408;DHT22;12542;50.924;4.516;2023-11-19T02:36:42;14.90;99.90
24408;DHT22;12542;50.924;4.516;2023-11-19T02:39:09;14.90;99.90
24408;DHT22;12542;50.924;4.516;2023-11-19T02:41:37;15.10;99.90
24408;DHT22;12542;50.924;4.516;2023-11-19T02:44:06;15.00;99.90
24408;DHT22;12542;50.924;4.516;2023-11-19T02:46:31;15.00;99.90
24408;DHT22;12542;50.924;4.516;2023-11-19T02:48:57;14.90;99.90
24408;DHT22;12542;50.924;4.516;2023-11-19T02:51:23;14.90;99.90
24408;DHT22;12542;50.924;4.516;2023-11-19T02:53:49;14.90;99.90
24408;DHT22;12542;50.924;4.516;2023-11-19T02:56:14;14.90;99.90
24408;DHT22;12542;50.924;4.516;2023-11-19T02:58:45;14.90;99.90
24408;DHT22;12542;50.924;4.516;2023-11-19T03:01:14;14.80;99.90
24408;DHT22;12542;50.924;4.516;2023-11-19T03:03:49;14.80;99.90
24408;DHT22;12542;50.924;4.516;2023-11-19T03:06:20;14.60;99.90
24408;DHT22;12542;50.924;4.516;2023-11-19T03:08:47;14.50;99.90
24408;DHT22;12542;50.924;4.516;2023-11-19T03:11:13;14.60;99.90
24408;DHT22;12542;50.924;4.516;2023-11-19T03:13:39;14.60;99.90
24408;DHT22;12542;50.924;4.516;2023-11-19T03:16:05;14.70;99.90
24408;DHT22;12542;50.924;4.516;2023-11-19T03:18:31;14.60;99.90
24408;DHT22;12542;50.924;4.516;2023-11-19T03:20:57;14.50;99.90
24408;DHT22;12542;50.924;4.516;2023-11-19T03:23:25;14.60;99.90
24408;DHT22;12542;50.924;4.516;2023-11-19T03:25:54;14.50;99.90
24408;DHT22;12542;50.924;4.516;2023-11-19T03:28:20;14.50;99.90
24408;DHT22;12542;50.924;4.516;2023-11-19T03:30:45;14.50;99.90
24408;DHT22;12542;50.924;4.516;2023-11-19T03:35:37;14.20;99.90
24408;DHT22;12542;50.924;4.516;2023-11-19T03:38:03;14.20;99.90
24408;DHT22;12542;50.924;4.516;2023-11-19T03:40:29;14.20;99.90
24408;DHT22;12542;50.924;4.516;2023-11-19T03:42:58;14.20;99.90
24408;DHT22;12542;50.924;4.516;2023-11-19T03:45:24;14.20;99.90
24408;DHT22;12542;50.924;4.516;2023-11-19T03:47:50;14.20;99.90
24408;DHT22;12542;50.924;4.516;2023-11-19T03:50:17;14.10;99.90
24408;DHT22;12542;50.924;4.516;2023-11-19T03:52:46;14.00;99.90
24408;DHT22;12542;50.924;4.516;2023-11-19T03:55:11;14.10;99.90
24408;DHT22;12542;50.924;4.516;2023-11-19T03:57:38;14.10;99.90
24408;DHT22;12542;50.924;4.516;2023-11-19T04:00:07;14.10;99.90
24408;DHT22;12542;50.924;4.516;2023-11-19T04:02:39;14.10;99.90
24408;DHT22;12542;50.924;4.516;2023-11-19T04:05:05;14.00;99.90
24408;DHT22;12542;50.924;4.516;2023-11-19T04:07:32;14.10;99.90
24408;DHT22;12542;50.924;4.516;2023-11-19T04:09:58;14.00;99.90
24408;DHT22;12542;50.924;4.516;2023-11-19T04:12:24;14.00;99.90
24408;DHT22;12542;50.924;4.516;2023-11-19T04:14:49;14.00;99.90
24408;DHT22;12542;50.924;4.516;2023-11-19T04:17:15;14.00;99.90
24408;DHT22;12542;50.924;4.516;2023-11-19T04:19:41;14.00;99.90
24408;DHT22;12542;50.924;4.516;2023-11-19T04:22:07;14.00;99.90
24408;DHT22;12542;50.924;4.516;2023-11-19T04:24:34;14.00;99.90
24408;DHT22;12542;50.924;4.516;2023-11-19T04:27:00;14.00;99.90
24408;DHT22;12542;50.924;4.516;2023-11-19T04:29:30;14.00;99.90
24408;DHT22;12542;50.924;4.516;2023-11-19T04:31:56;14.00;99.90
24408;DHT22;12542;50.924;4.516;2023-11-19T04:34:22;13.90;99.90
24408;DHT22;12542;50.924;4.516;2023-11-19T04:36:47;13.90;99.90
24408;DHT22;12542;50.924;4.516;2023-11-19T04:39:13;14.00;99.90
24408;DHT22;12542;50.924;4.516;2023-11-19T04:44:14;14.00;99.90
24408;DHT22;12542;50.924;4.516;2023-11-19T04:46:41;14.00;99.90
24408;DHT22;12542;50.924;4.516;2023-11-19T04:49:10;14.10;99.90
24408;DHT22;12542;50.924;4.516;2023-11-19T04:51:43;14.00;99.90
24408;DHT22;12542;50.924;4.516;2023-11-19T04:54:09;14.00;99.90
24408;DHT22;12542;50.924;4.516;2023-11-19T04:56:36;13.90;99.90
24408;DHT22;12542;50.924;4.516;2023-11-19T04:59:03;13.80;99.90
24408;DHT22;12542;50.924;4.516;2023-11-19T05:01:29;13.80;99.90
24408;DHT22;12542;50.924;4.516;2023-11-19T05:03:56;13.70;99.90
24408;DHT22;12542;50.924;4.516;2023-11-19T05:06:27;13.80;99.90
24408;DHT22;12542;50.924;4.516;2023-11-19T05:08:53;13.80;99.90
24408;DHT22;12542;50.924;4.516;2023-11-19T05:11:19;14.20;99.90
24408;DHT22;12542;50.924;4.516;2023-11-19T05:13:45;13.80;99.90
24408;DHT22;12542;50.924;4.516;2023-11-19T05:16:12;13.70;99.90
24408;DHT22;12542;50.924;4.516;2023-11-19T05:18:41;13.70;99.90
24408;DHT22;12542;50.924;4.516;2023-11-19T05:21:06;13.60;99.90
24408;DHT22;12542;50.924;4.516;2023-11-19T05:23:33;13.60;99.90
24408;DHT22;12542;50.924;4.516;2023-11-19T05:26:01;13.60;99.90
24408;DHT22;12542;50.924;4.516;2023-11-19T05:28:30;13.50;99.90
24408;DHT22;12542;50.924;4.516;2023-11-19T05:30:55;13.40;99.90
24408;DHT22;12542;50.924;4.516;2023-11-19T05:33:21;13.50;99.90
24408;DHT22;12542;50.924;4.516;2023-11-19T05:35:47;13.50;99.90
24408;DHT22;12542;50.924;4.516;2023-11-19T05:38:13;13.50;99.90
24408;DHT22;12542;50.924;4.516;2023-11-19T05:40:40;13.50;99.90
24408;DHT22;12542;50.924;4.516;2023-11-19T05:43:06;13.40;99.90
24408;DHT22;12542;50.924;4.516;2023-11-19T05:45:32;13.50;99.90
24408;DHT22;12542;50.924;4.516;2023-11-19T05:47:58;13.50;99.90
24408;DHT22;12542;50.924;4.516;2023-11-19T05:50:24;13.60;99.90
24408;DHT22;12542;50.924;4.516;2023-11-19T05:52:50;13.50;99.90
24408;DHT22;12542;50.924;4.516;2023-11-19T05:55:18;13.60;99.90
24408;DHT22;12542;50.924;4.516;2023-11-19T05:57:44;13.60;99.90
24408;DHT22;12542;50.924;4.516;2023-11-19T06:00:10;13.60;99.90
24408;DHT22;12542;50.924;4.516;2023-11-19T06:02:38;13.50;99.90
24408;DHT22;12542;50.924;4.516;2023-11-19T06:05:05;13.50;99.90
24408;DHT22;12542;50.924;4.516;2023-11-19T06:07:32;13.60;99.90
24408;DHT22;12542;50.924;4.516;2023-11-19T06:09:58;13.50;99.90
24408;DHT22;12542;50.924;4.516;2023-11-19T06:12:23;13.50;99.90
24408;DHT22;12542;50.924;4.516;2023-11-19T06:14:49;13.40;99.90
24408;DHT22;12542;50.924;4.516;2023-11-19T06:17:15;13.40;99.90
24408;DHT22;12542;50.924;4.516;2023-11-19T06:19:40;13.40;99.90
24408;DHT22;12542;50.924;4.516;2023-11-19T06:22:06;13.30;99.90
24408;DHT22;12542;50.924;4.516;2023-11-19T06:24:34;13.30;99.90
24408;DHT22;12542;50.924;4.516;2023-11-19T06:27:00;13.20;99.90
24408;DHT22;12542;50.924;4.516;2023-11-19T06:29:26;13.30;99.90
24408;DHT22;12542;50.924;4.516;2023-11-19T06:31:52;13.40;99.90
24408;DHT22;12542;50.924;4.516;2023-11-19T06:34:20;13.40;99.90
24408;DHT22;12542;50.924;4.516;2023-11-19T06:36:46;13.30;99.90
24408;DHT22;12542;50.924;4.516;2023-11-19T06:39:12;13.30;99.90
24408;DHT22;12542;50.924;4.516;2023-11-19T06:41:38;13.30;99.90
24408;DHT22;12542;50.924;4.516;2023-11-19T06:44:07;13.20;99.90
24408;DHT22;12542;50.924;4.516;2023-11-19T06:46:32;13.00;99.90
24408;DHT22;12542;50.924;4.516;2023-11-19T06:48:58;13.10;99.90
24408;DHT22;12542;50.924;4.516;2023-11-19T06:51:25;13.00;99.90
24408;DHT22;12542;50.924;4.516;2023-11-19T06:53:51;13.10;99.90
24408;DHT22;12542;50.924;4.516;2023-11-19T06:56:23;13.10;99.90
24408;DHT22;12542;50.924;4.516;2023-11-19T06:58:49;13.10;99.90
24408;DHT22;12542;50.924;4.516;2023-11-19T07:01:16;13.20;99.90
24408;DHT22;12542;50.924;4.516;2023-11-19T07:03:42;13.30;99.90
24408;DHT22;12542;50.924;4.516;2023-11-19T07:06:07;13.20;99.90
24408;DHT22;12542;50.924;4.516;2023-11-19T07:08:34;13.10;99.90
24408;DHT22;12542;50.924;4.516;2023-11-19T07:10:59;13.10;99.90
24408;DHT22;12542;50.924;4.516;2023-11-19T07:13:25;13.00;99.90
24408;DHT22;12542;50.924;4.516;2023-11-19T07:15:53;13.20;99.90
24408;DHT22;12542;50.924;4.516;2023-11-19T07:18:20;13.10;99.90
24408;DHT22;12542;50.924;4.516;2023-11-19T07:20:49;13.10;99.90
24408;DHT22;12542;50.924;4.516;2023-11-19T07:23:15;13.20;99.90
24408;DHT22;12542;50.924;4.516;2023-11-19T07:25:44;13.10;99.90
24408;DHT22;12542;50.924;4.516;2023-11-19T07:28:13;13.30;99.90
24408;DHT22;12542;50.924;4.516;2023-11-19T07:30:38;13.20;99.90
24408;DHT22;12542;50.924;4.516;2023-11-19T07:33:04;13.30;99.90
24408;DHT22;12542;50.924;4.516;2023-11-19T07:35:31;13.20;99.90
24408;DHT22;12542;50.924;4.516;2023-11-19T07:37:57;13.30;99.90
24408;DHT22;12542;50.924;4.516;2023-11-19T07:40:23;13.30;99.90
24408;DHT22;12542;50.924;4.516;2023-11-19T07:42:49;13.30;99.90
24408;DHT22;12542;50.924;4.516;2023-11-19T07:45:15;13.10;99.90
24408;DHT22;12542;50.924;4.516;2023-11-19T07:47:42;13.30;99.90
24408;DHT22;12542;50.924;4.516;2023-11-19T07:50:10;13.30;99.90
24408;DHT22;12542;50.924;4.516;2023-11-19T07:52:36;13.40;99.90
24408;DHT22;12542;50.924;4.516;2023-11-19T07:55:02;13.80;99.90
24408;DHT22;12542;50.924;4.516;2023-11-19T07:57:28;13.90;99.90
24408;DHT22;12542;50.924;4.516;2023-11-19T07:59:56;14.40;99.90
24408;DHT22;12542;50.924;4.516;2023-11-19T08:02:22;15.00;99.90
24408;DHT22;12542;50.924;4.516;2023-11-19T08:04:49;15.40;99.90
24408;DHT22;12542;50.924;4.516;2023-11-19T08:07:18;15.80;99.90
24408;DHT22;12542;50.924;4.516;2023-11-19T08:09:44;15.90;99.90
24408;DHT22;12542;50.924;4.516;2023-11-19T08:12:10;16.20;99.90
24408;DHT22;12542;50.924;4.516;2023-11-19T08:14:35;16.60;99.90
24408;DHT22;12542;50.924;4.516;2023-11-19T08:17:02;16.90;99.90
24408;DHT22;12542;50.924;4.516;2023-11-19T08:19:28;17.10;99.90
24408;DHT22;12542;50.924;4.516;2023-11-19T08:21:54;17.60;99.90
24408;DHT22;12542;50.924;4.516;2023-11-19T08:24:19;17.50;99.90
24408;DHT22;12542;50.924;4.516;2023-11-19T08:26:45;17.40;99.90
24408;DHT22;12542;50.924;4.516;2023-11-19T08:29:11;17.30;99.90
24408;DHT22;12542;50.924;4.516;2023-11-19T08:31:36;17.20;99.90
24408;DHT22;12542;50.924;4.516;2023-11-19T08:34:02;17.50;99.90
24408;DHT22;12542;50.924;4.516;2023-11-19T08:36:28;18.10;99.90
24408;DHT22;12542;50.924;4.516;2023-11-19T08:38:54;18.50;99.90
24408;DHT22;12542;50.924;4.516;2023-11-19T08:41:20;18.70;99.90
24408;DHT22;12542;50.924;4.516;2023-11-19T08:43:47;18.80;99.90
24408;DHT22;12542;50.924;4.516;2023-11-19T08:46:12;19.20;99.90
24408;DHT22;12542;50.924;4.516;2023-11-19T08:48:38;19.00;99.90
24408;DHT22;12542;50.924;4.516;2023-11-19T08:51:04;18.20;99.90
24408;DHT22;12542;50.924;4.516;2023-11-19T08:53:32;17.50;99.90
24408;DHT22;12542;50.924;4.516;2023-11-19T08:55:58;17.00;99.90
24408;DHT22;12542;50.924;4.516;2023-11-19T08:58:24;16.50;99.90
24408;DHT22;12542;50.924;4.516;2023-11-19T09:00:49;16.20;99.90
24408;DHT22;12542;50.924;4.516;2023-11-19T09:03:15;15.80;99.90
24408;DHT22;12542;50.924;4.516;2023-11-19T09:05:41;15.50;99.90
24408;DHT22;12542;50.924;4.516;2023-11-19T09:08:07;15.40;99.90
24408;DHT22;12542;50.924;4.516;2023-11-19T09:10:32;15.10;99.90
24408;DHT22;12542;50.924;4.516;2023-11-19T09:12:58;15.00;99.90
24408;DHT22;12542;50.924;4.516;2023-11-19T09:15:24;14.90;99.90
24408;DHT22;12542;50.924;4.516;2023-11-19T09:17:51;15.00;99.90
24408;DHT22;12542;50.924;4.516;2023-11-19T09:20:17;15.50;99.90
24408;DHT22;12542;50.924;4.516;2023-11-19T09:22:43;16.10;99.90
24408;DHT22;12542;50.924;4.516;2023-11-19T09:25:08;16.70;99.90
24408;DHT22;12542;50.924;4.516;2023-11-19T09:27:34;16.90;99.90
24408;DHT22;12542;50.924;4.516;2023-11-19T09:30:00;17.10;99.90
24408;DHT22;12542;50.924;4.516;2023-11-19T09:32:26;17.70;99.90
24408;DHT22;12542;50.924;4.516;2023-11-19T09:34:51;18.00;99.90
24408;DHT22;12542;50.924;4.516;2023-11-19T09:37:17;18.20;99.90
24408;DHT22;12542;50.924;4.516;2023-11-19T09:39:43;17.90;99.90
24408;DHT22;12542;50.924;4.516;2023-11-19T09:42:09;17.90;99.90
24408;DHT22;12542;50.924;4.516;2023-11-19T09:44:37;18.20;99.90
24408;DHT22;12542;50.924;4.516;2023-11-19T09:47:05;18.20;99.90
24408;DHT22;12542;50.924;4.516;2023-11-19T09:49:31;18.40;99.90
24408;DHT22;12542;50.924;4.516;2023-11-19T09:51:56;18.60;99.90
24408;DHT22;12542;50.924;4.516;2023-11-19T09:54:23;18.50;99.90
24408;DHT22;12542;50.924;4.516;2023-11-19T09:56:51;18.90;99.90
24408;DHT22;12542;50.924;4.516;2023-11-19T09:59:17;19.10;99.90
24408;DHT22;12542;50.924;4.516;2023-11-19T10:01:45;19.10;99.90
24408;DHT22;12542;50.924;4.516;2023-11-19T10:04:14;18.70;99.90
24408;DHT22;12542;50.924;4.516;2023-11-19T10:06:41;18.50;99.90
24408;DHT22;12542;50.924;4.516;2023-11-19T10:09:07;18.60;99.90
24408;DHT22;12542;50.924;4.516;2023-11-19T10:11:33;18.70;99.90
24408;DHT22;12542;50.924;4.516;2023-11-19T10:13:59;18.80;99.90
24408;DHT22;12542;50.924;4.516;2023-11-19T10:16:30;18.60;99.90
24408;DHT22;12542;50.924;4.516;2023-11-19T10:18:56;18.40;99.90
24408;DHT22;12542;50.924;4.516;2023-11-19T10:21:22;18.60;99.90
24408;DHT22;12542;50.924;4.516;2023-11-19T10:26:15;18.50;99.90
24408;DHT22;12542;50.924;4.516;2023-11-19T10:28:41;18.20;99.90
24408;DHT22;12542;50.924;4.516;2023-11-19T10:31:09;18.20;99.90
24408;DHT22;12542;50.924;4.516;2023-11-19T10:33:35;18.20;99.90
24408;DHT22;12542;50.924;4.516;2023-11-19T10:36:01;18.30;99.90
24408;DHT22;12542;50.924;4.516;2023-11-19T10:38:27;18.10;99.90
24408;DHT22;12542;50.924;4.516;2023-11-19T10:40:54;17.90;99.90
24408;DHT22;12542;50.924;4.516;2023-11-19T10:43:23;17.70;99.90
24408;DHT22;12542;50.924;4.516;2023-11-19T10:45:49;17.80;99.90
24408;DHT22;12542;50.924;4.516;2023-11-19T10:48:15;17.70;99.90
24408;DHT22;12542;50.924;4.516;2023-11-19T10:50:42;17.70;99.90
24408;DHT22;12542;50.924;4.516;2023-11-19T10:53:10;17.60;99.90
24408;DHT22;12542;50.924;4.516;2023-11-19T10:55:37;17.40;99.90
24408;DHT22;12542;50.924;4.516;2023-11-19T10:58:09;17.20;99.90
24408;DHT22;12542;50.924;4.516;2023-11-19T11:03:19;16.90;99.90
24408;DHT22;12542;50.924;4.516;2023-11-19T11:05:49;16.70;99.90
24408;DHT22;12542;50.924;4.516;2023-11-19T11:08:16;16.90;99.90
24408;DHT22;12542;50.924;4.516;2023-11-19T11:10:52;17.00;99.90
24408;DHT22;12542;50.924;4.516;2023-11-19T11:13:18;17.10;99.90
24408;DHT22;12542;50.924;4.516;2023-11-19T11:15:47;17.00;99.90
24408;DHT22;12542;50.924;4.516;2023-11-19T11:18:13;16.20;99.90
24408;DHT22;12542;50.924;4.516;2023-11-19T11:20:40;16.20;99.90
24408;DHT22;12542;50.924;4.516;2023-11-19T11:23:14;16.40;99.90
24408;DHT22;12542;50.924;4.516;2023-11-19T11:37:17;16.90;99.90
24408;DHT22;12542;50.924;4.516;2023-11-19T11:39:25;16.90;99.90
24408;DHT22;12542;50.924;4.516;2023-11-19T11:45:03;17.30;99.90
24408;DHT22;12542;50.924;4.516;2023-11-19T11:50:12;17.10;99.90
24408;DHT22;12542;50.924;4.516;2023-11-19T11:56:00;17.50;99.90
24408;DHT22;12542;50.924;4.516;2023-11-19T11:58:32;17.50;99.90
24408;DHT22;12542;50.924;4.516;2023-11-19T12:01:00;17.30;99.90
24408;DHT22;12542;50.924;4.516;2023-11-19T12:03:28;17.60;99.90
24408;DHT22;12542;50.924;4.516;2023-11-19T12:05:54;17.60;99.90
24408;DHT22;12542;50.924;4.516;2023-11-19T12:08:25;17.60;99.90
24408;DHT22;12542;50.924;4.516;2023-11-19T12:10:52;17.40;99.90
24408;DHT22;12542;50.924;4.516;2023-11-19T12:13:19;17.20;99.90
24408;DHT22;12542;50.924;4.516;2023-11-19T12:18:29;17.60;99.90
24408;DHT22;12542;50.924;4.516;2023-11-19T12:20:56;17.40;99.90
24408;DHT22;12542;50.924;4.516;2023-11-19T12:23:26;17.30;99.90
24408;DHT22;12542;50.924;4.516;2023-11-19T12:25:52;17.40;99.90
24408;DHT22;12542;50.924;4.516;2023-11-19T12:28:18;17.30;99.90
24408;DHT22;12542;50.924;4.516;2023-11-19T12:30:44;17.30;99.90
24408;DHT22;12542;50.924;4.516;2023-11-19T12:33:10;17.10;99.90
24408;DHT22;12542;50.924;4.516;2023-11-19T12:35:40;16.50;99.90
24408;DHT22;12542;50.924;4.516;2023-11-19T12:38:06;16.40;99.90
24408;DHT22;12542;50.924;4.516;2023-11-19T12:40:32;16.40;99.90
24408;DHT22;12542;50.924;4.516;2023-11-19T12:42:57;16.30;99.90
24408;DHT22;12542;50.924;4.516;2023-11-19T12:45:25;16.30;99.90
24408;DHT22;12542;50.924;4.516;2023-11-19T12:48:08;16.30;99.90
24408;DHT22;12542;50.924;4.516;2023-11-19T12:50:58;16.20;99.90
24408;DHT22;12542;50.924;4.516;2023-11-19T12:53:25;16.30;99.90
24408;DHT22;12542;50.924;4.516;2023-11-19T12:55:52;16.50;99.90
24408;DHT22;12542;50.924;4.516;2023-11-19T12:58:35;16.60;99.90
24408;DHT22;12542;50.924;4.516;2023-11-19T13:01:07;16.60;99.90
24408;DHT22;12542;50.924;4.516;2023-11-19T13:03:36;16.50;99.90
24408;DHT22;12542;50.924;4.516;2023-11-19T13:06:08;16.50;99.90
24408;DHT22;12542;50.924;4.516;2023-11-19T13:08:47;16.30;99.90
24408;DHT22;12542;50.924;4.516;2023-11-19T13:11:34;16.20;99.90
24408;DHT22;12542;50.924;4.516;2023-11-19T13:14:04;16.30;99.90
24408;DHT22;12542;50.924;4.516;2023-11-19T13:16:30;16.20;99.90
24408;DHT22;12542;50.924;4.516;2023-11-19T13:18:56;16.20;99.90
24408;DHT22;12542;50.924;4.516;2023-11-19T13:21:23;16.20;99.90
24408;DHT22;12542;50.924;4.516;2023-11-19T13:23:49;16.20;99.90
24408;DHT22;12542;50.924;4.516;2023-11-19T13:26:15;16.30;99.90
24408;DHT22;12542;50.924;4.516;2023-11-19T13:28:41;16.20;99.90
24408;DHT22;12542;50.924;4.516;2023-11-19T13:31:07;16.20;99.90
24408;DHT22;12542;50.924;4.516;2023-11-19T13:33:33;16.10;99.90
24408;DHT22;12542;50.924;4.516;2023-11-19T13:35:59;16.00;99.90
24408;DHT22;12542;50.924;4.516;2023-11-19T13:38:31;15.90;99.90
24408;DHT22;12542;50.924;4.516;2023-11-19T13:40:57;15.80;99.90
24408;DHT22;12542;50.924;4.516;2023-11-19T13:43:24;15.80;99.90
24408;DHT22;12542;50.924;4.516;2023-11-19T13:45:49;15.90;99.90
24408;DHT22;12542;50.924;4.516;2023-11-19T13:48:16;15.90;99.90
24408;DHT22;12542;50.924;4.516;2023-11-19T13:50:42;15.30;99.90
24408;DHT22;12542;50.924;4.516;2023-11-19T13:53:13;15.10;99.90
24408;DHT22;12542;50.924;4.516;2023-11-19T13:55:39;15.10;99.90
24408;DHT22;12542;50.924;4.516;2023-11-19T13:58:05;15.20;99.90
24408;DHT22;12542;50.924;4.516;2023-11-19T14:00:31;15.20;99.90
24408;DHT22;12542;50.924;4.516;2023-11-19T14:02:56;15.30;99.90
24408;DHT22;12542;50.924;4.516;2023-11-19T14:05:22;15.30;99.90
24408;DHT22;12542;50.924;4.516;2023-11-19T14:07:50;15.30;99.90
24408;DHT22;12542;50.924;4.516;2023-11-19T14:10:17;15.20;99.90
24408;DHT22;12542;50.924;4.516;2023-11-19T14:12:43;15.00;99.90
24408;DHT22;12542;50.924;4.516;2023-11-19T14:15:09;15.00;99.90
24408;DHT22;12542;50.924;4.516;2023-11-19T14:17:36;15.20;99.90
24408;DHT22;12542;50.924;4.516;2023-11-19T14:20:02;15.30;99.90
24408;DHT22;12542;50.924;4.516;2023-11-19T14:22:40;15.30;99.90
24408;DHT22;12542;50.924;4.516;2023-11-19T14:25:08;15.30;99.90
24408;DHT22;12542;50.924;4.516;2023-11-19T14:27:39;15.20;99.90
24408;DHT22;12542;50.924;4.516;2023-11-19T14:30:10;15.10;99.90
24408;DHT22;12542;50.924;4.516;2023-11-19T14:32:37;15.20;99.90
24408;DHT22;12542;50.924;4.516;2023-11-19T14:35:04;15.00;99.90
24408;DHT22;12542;50.924;4.516;2023-11-19T14:37:30;14.90;99.90
24408;DHT22;12542;50.924;4.516;2023-11-19T14:39:59;14.90;99.90
24408;DHT22;12542;50.924;4.516;2023-11-19T14:42:25;14.70;99.90
24408;DHT22;12542;50.924;4.516;2023-11-19T14:44:53;14.60;99.90
24408;DHT22;12542;50.924;4.516;2023-11-19T14:47:22;14.50;99.90
24408;DHT22;12542;50.924;4.516;2023-11-19T14:49:49;14.50;99.90
24408;DHT22;12542;50.924;4.516;2023-11-19T14:52:15;14.60;99.90
24408;DHT22;12542;50.924;4.516;2023-11-19T14:54:41;14.60;99.90
24408;DHT22;12542;50.924;4.516;2023-11-19T14:57:07;14.70;99.90
24408;DHT22;12542;50.924;4.516;2023-11-19T14:59:36;14.70;99.90
24408;DHT22;12542;50.924;4.516;2023-11-19T15:02:02;14.70;99.90
24408;DHT22;12542;50.924;4.516;2023-11-19T15:04:28;14.70;99.90
24408;DHT22;12542;50.924;4.516;2023-11-19T15:06:59;14.70;99.90
24408;DHT22;12542;50.924;4.516;2023-11-19T15:09:26;14.70;99.90
24408;DHT22;12542;50.924;4.516;2023-11-19T15:11:55;14.50;99.90
24408;DHT22;12542;50.924;4.516;2023-11-19T15:14:21;14.60;99.90
24408;DHT22;12542;50.924;4.516;2023-11-19T15:16:47;14.60;99.90
24408;DHT22;12542;50.924;4.516;2023-11-19T15:19:13;14.50;99.90
24408;DHT22;12542;50.924;4.516;2023-11-19T15:21:40;14.50;99.90
24408;DHT22;12542;50.924;4.516;2023-11-19T15:24:07;14.40;99.90
24408;DHT22;12542;50.924;4.516;2023-11-19T15:26:34;14.50;99.90
24408;DHT22;12542;50.924;4.516;2023-11-19T15:29:01;14.50;99.90
24408;DHT22;12542;50.924;4.516;2023-11-19T15:31:27;14.50;99.90
24408;DHT22;12542;50.924;4.516;2023-11-19T15:33:52;14.50;99.90
24408;DHT22;12542;50.924;4.516;2023-11-19T15:36:18;14.60;99.90
24408;DHT22;12542;50.924;4.516;2023-11-19T15:38:44;14.60;99.90
24408;DHT22;12542;50.924;4.516;2023-11-19T15:41:10;14.60;99.90
24408;DHT22;12542;50.924;4.516;2023-11-19T15:43:35;14.60;99.90
24408;DHT22;12542;50.924;4.516;2023-11-19T15:46:05;14.60;99.90
24408;DHT22;12542;50.924;4.516;2023-11-19T15:48:30;14.70;99.90
24408;DHT22;12542;50.924;4.516;2023-11-19T15:50:56;14.40;99.90
24408;DHT22;12542;50.924;4.516;2023-11-19T15:53:22;14.50;99.90
24408;DHT22;12542;50.924;4.516;2023-11-19T15:55:47;14.40;99.90
24408;DHT22;12542;50.924;4.516;2023-11-19T15:58:13;14.50;99.90
24408;DHT22;12542;50.924;4.516;2023-11-19T16:00:39;14.60;99.90
24408;DHT22;12542;50.924;4.516;2023-11-19T16:03:11;14.50;99.90
24408;DHT22;12542;50.924;4.516;2023-11-19T16:05:37;14.50;99.90